createdAt,value
2023-09-08T00:00:14.477Z,100854.84
2023-09-08T00:03:27.163Z,100853.59
2023-09-08T00:06:39.529Z,100859.09
2023-09-08T00:09:52.208Z,100858.38
2023-09-08T00:13:04.745Z,100853.00
2023-09-08T00:16:17.725Z,100856.66
2023-09-08T00:19:30.239Z,100857.78
2023-09-08T00:22:42.993Z,100859.78
2023-09-08T00:25:56.605Z,100860.91
2023-09-08T00:29:09.317Z,100867.22
2023-09-08T00:32:21.790Z,100862.12
2023-09-08T00:35:34.538Z,100861.88
2023-09-08T00:38:46.993Z,100848.13
2023-09-08T00:41:59.636Z,100852.06
2023-09-08T00:45:12.245Z,100851.50
2023-09-08T00:48:25.078Z,100857.37
2023-09-08T00:51:39.270Z,100857.63
2023-09-08T00:54:52.089Z,100856.69
2023-09-08T00:58:04.558Z,100854.53
2023-09-08T01:01:18.673Z,100847.75
2023-09-08T01:04:31.329Z,100850.69
2023-09-08T01:07:44.171Z,100845.75
2023-09-08T01:10:56.845Z,100850.28
2023-09-08T01:14:09.595Z,100845.44
2023-09-08T01:17:22.031Z,100844.72
2023-09-08T01:20:54.677Z,100846.34
2023-09-08T01:24:22.352Z,100847.31
2023-09-08T01:27:35.361Z,100845.31
2023-09-08T01:30:47.840Z,100836.06
2023-09-08T01:34:01.933Z,100838.38
2023-09-08T01:37:14.433Z,100840.28
2023-09-08T01:40:27.093Z,100840.44
2023-09-08T01:43:39.586Z,100840.72
2023-09-08T01:46:57.761Z,100839.84
2023-09-08T01:50:10.406Z,100840.72
2023-09-08T01:53:23.073Z,100839.53
2023-09-08T01:56:35.474Z,100838.59
2023-09-08T01:59:49.089Z,100835.88
2023-09-08T02:03:01.549Z,100834.13
2023-09-08T02:06:14.261Z,100835.69
2023-09-08T02:09:37.817Z,100841.81
2023-09-08T02:12:50.479Z,100831.28
2023-09-08T02:16:02.950Z,100829.72
2023-09-08T02:19:16.035Z,100826.87
2023-09-08T02:22:28.733Z,100826.06
2023-09-08T02:25:41.377Z,100830.22
2023-09-08T02:28:54.069Z,100834.53
2023-09-08T02:32:06.789Z,100833.53
2023-09-08T02:35:19.964Z,100827.66
2023-09-08T02:38:33.560Z,100827.50
2023-09-08T02:41:46.636Z,100825.88
2023-09-08T02:44:59.077Z,100823.09
2023-09-08T02:48:11.942Z,100824.31
2023-09-08T02:51:24.495Z,100825.94
2023-09-08T02:54:39.230Z,100828.41
2023-09-08T02:57:51.679Z,100830.44
2023-09-08T03:01:30.663Z,100819.16
2023-09-08T03:04:43.189Z,100818.91
2023-09-08T03:07:56.121Z,100821.56
2023-09-08T03:11:08.832Z,100818.72
2023-09-08T03:14:21.542Z,100824.41
2023-09-08T03:17:33.923Z,100818.72
2023-09-08T03:20:52.575Z,100836.38
2023-09-08T03:24:05.343Z,100827.06
2023-09-08T03:27:19.514Z,100830.16
2023-09-08T03:30:31.955Z,100835.81
2023-09-08T03:33:44.769Z,100841.06
2023-09-08T03:36:57.628Z,100835.62
2023-09-08T03:40:10.756Z,100837.41
2023-09-08T03:43:23.493Z,100847.13
2023-09-08T03:46:37.439Z,100847.53
2023-09-08T03:49:49.975Z,100851.34
2023-09-08T03:53:02.748Z,100842.88
2023-09-08T03:56:15.233Z,100845.12
2023-09-08T03:59:27.948Z,100845.31
2023-09-08T04:02:40.354Z,100847.78
2023-09-08T04:05:53.145Z,100848.16
2023-09-08T04:09:05.621Z,100843.53
2023-09-08T04:12:18.368Z,100846.09
2023-09-08T04:15:30.799Z,100844.44
2023-09-08T04:18:43.579Z,100847.84
2023-09-08T04:21:56.333Z,100855.72
2023-09-08T04:25:09.251Z,100851.03
2023-09-08T04:28:21.671Z,100857.09
2023-09-08T04:31:34.356Z,100851.63
2023-09-08T04:34:46.865Z,100858.88
2023-09-08T04:38:00.110Z,100857.19
2023-09-08T04:41:14.332Z,100863.78
2023-09-08T04:44:27.316Z,100856.41
2023-09-08T04:47:40.045Z,100855.44
2023-09-08T04:50:52.782Z,100856.78
2023-09-08T04:54:05.570Z,100861.34
2023-09-08T04:57:23.156Z,100860.31
2023-09-08T05:00:39.784Z,100850.44
2023-09-08T05:03:52.843Z,100850.72
2023-09-08T05:07:05.346Z,100851.47
2023-09-08T05:10:18.674Z,100856.69
2023-09-08T05:13:32.349Z,100868.13
2023-09-08T05:16:50.702Z,100860.34
2023-09-08T05:20:04.524Z,100862.22
2023-09-08T05:23:17.276Z,100872.03
2023-09-08T05:26:29.824Z,100872.72
2023-09-08T05:29:42.594Z,100871.75
2023-09-08T05:32:55.151Z,100873.47
2023-09-08T05:36:08.277Z,100870.22
2023-09-08T05:39:22.189Z,100871.28
2023-09-08T05:42:34.921Z,100874.75
2023-09-08T05:45:47.405Z,100882.19
2023-09-08T05:49:00.506Z,100877.87
2023-09-08T05:52:13.506Z,100878.91
2023-09-08T05:55:27.306Z,100873.34
2023-09-08T05:58:40.569Z,100877.34
2023-09-08T06:01:53.580Z,100875.19
2023-09-08T06:05:06.551Z,100880.13
2023-09-08T06:08:19.667Z,100881.00
2023-09-08T06:11:32.424Z,100876.34
2023-09-08T06:14:44.917Z,100881.91
2023-09-08T06:17:58.151Z,100878.44
2023-09-08T06:21:11.054Z,100887.59
2023-09-08T06:24:23.916Z,100885.19
2023-09-08T06:27:36.781Z,100884.72
2023-09-08T06:30:49.540Z,100889.69
2023-09-08T06:34:02.352Z,100888.22
2023-09-08T06:37:15.269Z,100895.13
2023-09-08T06:40:30.599Z,100888.44
2023-09-08T06:43:44.020Z,100893.94
2023-09-08T06:46:57.030Z,100900.63
2023-09-08T06:50:11.141Z,100893.56
2023-09-08T06:53:24.328Z,100899.06
2023-09-08T06:56:38.279Z,100895.09
2023-09-08T06:59:51.153Z,100900.50
2023-09-08T07:03:04.228Z,100905.41
2023-09-08T07:06:17.386Z,100907.56
2023-09-08T07:09:30.297Z,100909.25
2023-09-08T07:12:42.863Z,100913.50
2023-09-08T07:15:56.085Z,100910.09
2023-09-08T07:19:11.512Z,100909.38
2023-09-08T07:22:24.697Z,100904.16
2023-09-08T07:25:37.125Z,100912.19
2023-09-08T07:28:50.572Z,100896.28
2023-09-08T07:32:04.321Z,100898.00
2023-09-08T07:35:18.084Z,100881.13
2023-09-08T07:38:30.880Z,100888.00
2023-09-08T07:41:43.876Z,100879.06
2023-09-08T07:44:56.495Z,100874.56
2023-09-08T07:48:09.237Z,100867.41
2023-09-08T07:51:21.680Z,100866.69
2023-09-08T07:54:34.447Z,100865.13
2023-09-08T07:57:49.991Z,100869.91
2023-09-08T08:01:02.697Z,100864.37
2023-09-08T08:04:15.433Z,100867.59
2023-09-08T08:07:27.892Z,100865.97
2023-09-08T08:10:42.919Z,100876.38
2023-09-08T08:13:55.566Z,100872.38
2023-09-08T08:17:08.289Z,100870.84
2023-09-08T08:20:20.876Z,100875.16
2023-09-08T08:23:35.107Z,100865.56
2023-09-08T08:26:48.122Z,100863.47
2023-09-08T08:30:02.218Z,100862.69
2023-09-08T08:33:15.601Z,100857.34
2023-09-08T08:36:28.440Z,100861.31
2023-09-08T08:39:40.810Z,100860.78
2023-09-08T08:42:57.439Z,100861.31
2023-09-08T08:46:10.802Z,100858.62
2023-09-08T08:49:23.549Z,100858.62
2023-09-08T08:52:35.944Z,100858.06
2023-09-08T08:55:48.696Z,100861.78
2023-09-08T08:59:02.182Z,100860.63
2023-09-08T09:02:16.031Z,100866.59
2023-09-08T09:05:28.500Z,100865.97
2023-09-08T09:08:41.821Z,100855.53
2023-09-08T09:11:54.354Z,100856.59
2023-09-08T09:15:07.746Z,100856.25
2023-09-08T09:18:20.332Z,100849.59
2023-09-08T09:21:48.883Z,100844.75
2023-09-08T09:25:01.839Z,100840.81
2023-09-08T09:28:14.671Z,100842.94
2023-09-08T09:31:27.200Z,100843.25
2023-09-08T09:34:51.088Z,100844.56
2023-09-08T09:38:03.696Z,100846.97
2023-09-08T09:41:16.415Z,100848.41
2023-09-08T09:44:28.956Z,100838.69
2023-09-08T09:47:41.673Z,100847.00
2023-09-08T09:50:54.949Z,100841.81
2023-09-08T09:54:07.686Z,100837.31
2023-09-08T09:57:21.848Z,100835.12
2023-09-08T10:00:35.625Z,100833.09
2023-09-08T10:03:48.405Z,100824.69
2023-09-08T10:07:00.899Z,100830.63
2023-09-08T10:10:13.704Z,100827.19
2023-09-08T10:13:29.921Z,100825.75
2023-09-08T10:16:43.973Z,100828.97
2023-09-08T10:19:56.532Z,100820.84
2023-09-08T10:23:14.233Z,100825.62
2023-09-08T10:26:28.115Z,100824.28
2023-09-08T10:29:40.820Z,100822.59
2023-09-08T10:32:53.309Z,100814.00
2023-09-08T10:36:06.599Z,100810.09
2023-09-08T10:39:43.119Z,100810.00
2023-09-08T10:43:08.826Z,100813.91
2023-09-08T10:46:25.474Z,100807.88
2023-09-08T10:49:39.304Z,100798.78
2023-09-08T10:53:09.256Z,100805.16
2023-09-08T10:56:22.026Z,100798.50
2023-09-08T10:59:37.535Z,100799.44
2023-09-08T11:02:50.786Z,100795.25
2023-09-08T11:06:03.730Z,100794.19
2023-09-08T11:09:16.975Z,100790.78
2023-09-08T11:12:29.541Z,100788.22
2023-09-08T11:15:42.233Z,100784.75
2023-09-08T11:18:54.695Z,100786.09
2023-09-08T11:22:07.470Z,100782.56
2023-09-08T11:25:21.235Z,100786.88
2023-09-08T11:28:34.396Z,100778.53
2023-09-08T11:31:52.641Z,100780.47
2023-09-08T11:35:10.539Z,100777.09
2023-09-08T11:38:29.760Z,100770.28
2023-09-08T11:41:42.732Z,100761.00
2023-09-08T11:44:55.148Z,100762.75
2023-09-08T11:48:07.912Z,100760.25
2023-09-08T11:51:27.424Z,100762.37
2023-09-08T11:54:51.928Z,100763.44
2023-09-08T11:58:08.546Z,100767.78
2023-09-08T12:01:21.237Z,100753.19
2023-09-08T12:04:37.287Z,100737.34
2023-09-08T12:07:51.610Z,100748.66
2023-09-08T12:11:04.508Z,100740.56
2023-09-08T12:14:17.008Z,100741.44
2023-09-08T12:17:29.873Z,100731.28
2023-09-08T12:20:42.326Z,100729.84
2023-09-08T12:23:55.158Z,100734.50
2023-09-08T12:27:07.649Z,100728.03
2023-09-08T12:30:22.764Z,100719.75
2023-09-08T12:33:36.036Z,100715.34
2023-09-08T12:36:48.731Z,100715.91
2023-09-08T12:40:02.686Z,100714.94
2023-09-08T12:43:26.983Z,100715.19
2023-09-08T12:46:41.158Z,100708.09
2023-09-08T12:49:55.430Z,100717.25
2023-09-08T12:53:07.784Z,100703.47
2023-09-08T12:56:20.457Z,100699.59
2023-09-08T12:59:32.886Z,100700.38
2023-09-08T13:02:45.729Z,100698.69
2023-09-08T13:05:58.149Z,100695.53
2023-09-08T13:09:10.822Z,100686.03
2023-09-08T13:12:23.268Z,100676.53
2023-09-08T13:15:36.032Z,100684.13
2023-09-08T13:18:48.645Z,100679.09
2023-09-08T13:22:01.333Z,100675.13
2023-09-08T13:25:13.737Z,100673.69
2023-09-08T13:28:26.432Z,100677.31
2023-09-08T13:31:38.837Z,100676.34
2023-09-08T13:34:51.672Z,100671.28
2023-09-08T13:38:04.249Z,100664.41
2023-09-08T13:41:17.033Z,100666.91
2023-09-08T13:44:29.636Z,100662.34
2023-09-08T13:47:42.597Z,100658.50
2023-09-08T13:50:59.178Z,100652.44
2023-09-08T13:54:13.241Z,100643.78
2023-09-08T14:00:44.961Z,100642.81
2023-09-08T14:04:03.518Z,100634.28
2023-09-08T14:13:50.295Z,100639.12
2023-09-08T14:17:03.136Z,100636.00
2023-09-08T14:20:15.563Z,100625.94
2023-09-08T14:23:28.297Z,100628.66
2023-09-08T14:26:40.744Z,100625.69
2023-09-08T14:29:53.625Z,100615.06
2023-09-08T14:33:07.144Z,100620.59
2023-09-08T14:36:20.003Z,100616.19
2023-09-08T14:39:32.543Z,100622.31
2023-09-08T14:42:45.208Z,100612.63
2023-09-08T14:46:02.120Z,100603.72
2023-09-08T14:49:16.306Z,100602.91
2023-09-08T14:52:28.621Z,100604.72
2023-09-08T14:55:43.380Z,100602.47
2023-09-08T14:58:56.033Z,100602.00
2023-09-08T15:02:11.537Z,100604.50
2023-09-08T15:05:23.912Z,100600.66
2023-09-08T15:08:36.586Z,100595.12
2023-09-08T15:11:49.470Z,100597.50
2023-09-08T15:15:02.281Z,100595.38
2023-09-08T15:18:14.824Z,100587.47
2023-09-08T15:21:30.929Z,100583.97
2023-09-08T15:24:43.371Z,100593.47
2023-09-08T15:27:56.040Z,100588.03
2023-09-08T15:31:08.489Z,100588.94
2023-09-08T15:34:21.145Z,100595.00
2023-09-08T15:37:34.382Z,100583.53
2023-09-08T15:41:05.665Z,100593.34
2023-09-08T15:44:18.359Z,100592.56
2023-09-08T15:47:31.123Z,100589.94
2023-09-08T15:50:43.596Z,100595.12
2023-09-08T15:53:56.267Z,100592.75
2023-09-08T15:57:10.256Z,100592.31
2023-09-08T16:00:22.972Z,100587.34
2023-09-08T16:03:36.062Z,100583.22
2023-09-08T16:06:49.366Z,100581.44
2023-09-08T16:10:04.463Z,100581.69
2023-09-08T16:13:16.963Z,100578.06
2023-09-08T16:16:29.758Z,100578.19
2023-09-08T16:19:43.624Z,100567.72
2023-09-08T16:22:56.329Z,100574.91
2023-09-08T16:26:09.277Z,100580.66
2023-09-08T16:29:22.353Z,100573.59
2023-09-08T16:32:34.760Z,100576.13
2023-09-08T16:35:47.458Z,100583.84
2023-09-08T16:38:59.860Z,100576.53
2023-09-08T16:42:15.772Z,100591.03
2023-09-08T16:45:28.136Z,100576.19
2023-09-08T16:48:40.799Z,100581.31
2023-09-08T16:51:55.039Z,100578.28
2023-09-08T16:55:12.539Z,100583.53
2023-09-08T16:58:25.153Z,100580.41
2023-09-08T17:01:38.090Z,100583.22
2023-09-08T17:04:50.501Z,100583.69
2023-09-08T17:08:03.569Z,100588.19
2023-09-08T17:11:16.654Z,100591.66
2023-09-08T17:14:30.679Z,100595.06
2023-09-08T17:17:43.067Z,100595.69
2023-09-08T17:20:59.306Z,100591.03
2023-09-08T17:24:12.099Z,100596.91
2023-09-08T17:27:24.900Z,100601.91
2023-09-08T17:30:37.316Z,100602.56
2023-09-08T17:33:50.980Z,100606.87
2023-09-08T17:37:03.822Z,100606.47
2023-09-08T17:40:16.610Z,100613.28
2023-09-08T17:43:29.081Z,100619.81
2023-09-08T17:46:42.771Z,100619.94
2023-09-08T17:49:55.222Z,100625.59
2023-09-08T17:53:09.161Z,100623.22
2023-09-08T17:56:21.668Z,100626.94
2023-09-08T17:59:34.381Z,100634.19
2023-09-08T18:02:46.830Z,100635.78
2023-09-08T18:05:59.689Z,100634.47
2023-09-08T18:09:12.153Z,100634.72
2023-09-08T18:12:24.909Z,100643.44
2023-09-08T18:15:37.513Z,100639.69
2023-09-08T18:18:50.405Z,100644.97
2023-09-08T18:22:05.999Z,100650.84
2023-09-08T18:25:18.737Z,100655.19
2023-09-08T18:28:31.384Z,100655.62
2023-09-08T18:31:44.130Z,100649.41
2023-09-08T18:34:56.576Z,100656.72
2023-09-08T18:38:10.106Z,100650.56
2023-09-08T18:41:22.578Z,100645.19
2023-09-08T18:44:40.747Z,100648.97
2023-09-08T18:47:53.119Z,100646.06
2023-09-08T18:51:05.843Z,100639.16
2023-09-08T18:54:18.253Z,100639.75
2023-09-08T18:57:31.605Z,100642.91
2023-09-08T19:00:45.501Z,100635.75
2023-09-08T19:03:58.245Z,100648.94
2023-09-08T19:07:10.673Z,100647.19
2023-09-08T19:10:23.350Z,100645.41
2023-09-08T19:13:36.008Z,100644.37
2023-09-08T19:16:48.952Z,100648.75
2023-09-08T19:20:01.360Z,100639.78
2023-09-08T19:23:14.139Z,100644.13
2023-09-08T19:26:26.483Z,100637.19
2023-09-08T19:29:39.421Z,100641.00
2023-09-08T19:32:51.832Z,100635.56
2023-09-08T19:36:04.766Z,100636.09
2023-09-08T19:39:17.578Z,100639.22
2023-09-08T19:42:30.331Z,100640.13
2023-09-08T19:45:42.687Z,100641.06
2023-09-08T19:48:55.620Z,100644.88
2023-09-08T19:52:08.207Z,100642.59
2023-09-08T19:55:20.882Z,100639.53
2023-09-08T19:58:33.276Z,100643.72
2023-09-08T20:01:47.500Z,100641.38
2023-09-08T20:05:00.311Z,100646.00
2023-09-08T20:08:13.036Z,100642.97
2023-09-08T20:11:25.650Z,100637.69
2023-09-08T20:14:37.998Z,100641.47
2023-09-08T20:17:50.727Z,100639.81
2023-09-08T20:21:04.247Z,100643.44
2023-09-08T20:24:17.847Z,100647.13
2023-09-08T20:27:30.273Z,100647.59
2023-09-08T20:30:43.016Z,100646.66
2023-09-08T20:33:55.653Z,100648.97
2023-09-08T20:37:08.294Z,100644.72
2023-09-08T20:40:20.733Z,100646.66
2023-09-08T20:43:33.799Z,100650.16
2023-09-08T20:46:47.606Z,100642.47
2023-09-08T20:50:00.387Z,100637.66
2023-09-08T20:53:12.782Z,100639.19
2023-09-08T20:56:25.489Z,100643.94
2023-09-08T20:59:37.907Z,100634.22
2023-09-08T21:02:50.625Z,100631.56
2023-09-08T21:06:03.759Z,100634.13
2023-09-08T21:09:16.472Z,100632.22
2023-09-08T21:12:28.853Z,100638.28
2023-09-08T21:15:42.021Z,100645.50
2023-09-08T21:18:54.760Z,100636.19
2023-09-08T21:22:07.465Z,100638.75
2023-09-08T21:25:19.924Z,100643.44
2023-09-08T21:28:32.653Z,100636.28
2023-09-08T21:31:49.730Z,100638.00
2023-09-08T21:35:02.446Z,100639.66
2023-09-08T21:38:14.861Z,100645.00
2023-09-08T21:41:27.484Z,100642.91
2023-09-08T21:44:39.841Z,100648.69
2023-09-08T21:47:53.705Z,100644.84
2023-09-08T21:51:06.377Z,100640.81
2023-09-08T21:54:19.526Z,100638.44
2023-09-08T21:57:31.940Z,100639.16
2023-09-08T22:00:44.618Z,100639.53
2023-09-08T22:03:57.467Z,100637.59
2023-09-08T22:07:09.924Z,100641.13
2023-09-08T22:10:23.027Z,100633.19
2023-09-08T22:13:37.605Z,100633.66
2023-09-08T22:16:50.593Z,100632.06
2023-09-08T22:20:13.842Z,100634.25
2023-09-08T22:23:26.819Z,100637.69
2023-09-08T22:26:39.185Z,100634.59
2023-09-08T22:29:51.934Z,100629.19
2023-09-08T22:33:04.638Z,100635.06
2023-09-08T22:36:17.433Z,100631.88
2023-09-08T22:39:30.282Z,100636.81
2023-09-08T22:42:43.007Z,100630.75
2023-09-08T22:45:55.646Z,100619.03
2023-09-08T22:49:08.300Z,100614.44
2023-09-08T22:52:20.896Z,100618.44
2023-09-08T22:55:33.784Z,100617.66
2023-09-08T22:58:46.221Z,100623.06
2023-09-08T23:01:58.946Z,100618.25
2023-09-08T23:05:12.465Z,100623.72
2023-09-08T23:08:25.181Z,100630.16
2023-09-08T23:11:37.591Z,100621.69
2023-09-08T23:14:54.720Z,100627.06
2023-09-08T23:18:10.798Z,100619.50
2023-09-08T23:21:23.620Z,100623.84
2023-09-08T23:24:35.966Z,100623.37
2023-09-08T23:27:48.607Z,100629.78
2023-09-08T23:31:01.028Z,100622.81
2023-09-08T23:34:13.837Z,100631.78
2023-09-08T23:37:26.518Z,100634.88
2023-09-08T23:40:39.296Z,100631.44
2023-09-08T23:43:51.679Z,100627.75
2023-09-08T23:47:07.472Z,100629.72
2023-09-08T23:50:19.924Z,100632.06
2023-09-08T23:53:32.666Z,100633.06
2023-09-08T23:56:45.304Z,100633.56
2023-09-08T23:59:58.214Z,100623.00
